sensor_id;sensor_type;location;lat;lon;timestamp;P1;durP1;ratioP1;P2;durP2;ratioP2
35225;SDS011;21813;49.686;21.766;2023-10-31T00:16:44;5.20;;;2.70;;
35225;SDS011;21813;49.686;21.766;2023-10-31T00:19:12;8.43;;;3.00;;
35225;SDS011;21813;49.686;21.766;2023-10-31T00:21:37;7.55;;;2.78;;
35225;SDS011;21813;49.686;21.766;2023-10-31T00:24:23;8.95;;;2.92;;
35225;SDS011;21813;49.686;21.766;2023-10-31T00:54:09;5.70;;;2.63;;
35225;SDS011;21813;49.686;21.766;2023-10-31T00:59:35;10.15;;;3.28;;
35225;SDS011;21813;49.686;21.766;2023-10-31T01:14:49;7.72;;;2.92;;
35225;SDS011;21813;49.686;21.766;2023-10-31T01:45:38;7.78;;;2.05;;
35225;SDS011;21813;49.686;21.766;2023-10-31T01:48:19;8.20;;;2.40;;
35225;SDS011;21813;49.686;21.766;2023-10-31T01:56:42;7.88;;;2.00;;
35225;SDS011;21813;49.686;21.766;2023-10-31T02:34:40;8.60;;;2.13;;
35225;SDS011;21813;49.686;21.766;2023-10-31T02:37:27;4.95;;;2.05;;
35225;SDS011;21813;49.686;21.766;2023-10-31T02:39:55;5.55;;;1.90;;
35225;SDS011;21813;49.686;21.766;2023-10-31T02:46:07;6.25;;;2.25;;
35225;SDS011;21813;49.686;21.766;2023-10-31T03:29:32;4.20;;;2.72;;
35225;SDS011;21813;49.686;21.766;2023-10-31T03:39:37;6.72;;;1.95;;
35225;SDS011;21813;49.686;21.766;2023-10-31T04:06:22;6.43;;;2.17;;
35225;SDS011;21813;49.686;21.766;2023-10-31T04:58:28;6.40;;;2.13;;
35225;SDS011;21813;49.686;21.766;2023-10-31T05:18:52;6.55;;;2.08;;
35225;SDS011;21813;49.686;21.766;2023-10-31T06:22:17;4.93;;;2.30;;
35225;SDS011;21813;49.686;21.766;2023-10-31T06:24:43;5.63;;;2.58;;
35225;SDS011;21813;49.686;21.766;2023-10-31T06:27:42;4.82;;;1.92;;
35225;SDS011;21813;49.686;21.766;2023-10-31T06:30:08;5.80;;;2.25;;
35225;SDS011;21813;49.686;21.766;2023-10-31T06:33:00;3.67;;;2.10;;
35225;SDS011;21813;49.686;21.766;2023-10-31T06:35:38;10.00;;;2.55;;
35225;SDS011;21813;49.686;21.766;2023-10-31T06:38:04;7.22;;;2.28;;
35225;SDS011;21813;49.686;21.766;2023-10-31T06:40:30;4.85;;;2.70;;
35225;SDS011;21813;49.686;21.766;2023-10-31T06:42:58;8.85;;;2.22;;
35225;SDS011;21813;49.686;21.766;2023-10-31T06:45:24;6.40;;;2.55;;
35225;SDS011;21813;49.686;21.766;2023-10-31T06:50:45;3.88;;;2.28;;
35225;SDS011;21813;49.686;21.766;2023-10-31T06:53:12;3.88;;;2.10;;
35225;SDS011;21813;49.686;21.766;2023-10-31T06:55:37;7.30;;;2.08;;
35225;SDS011;21813;49.686;21.766;2023-10-31T06:58:03;6.05;;;2.35;;
35225;SDS011;21813;49.686;21.766;2023-10-31T07:00:29;6.60;;;2.00;;
35225;SDS011;21813;49.686;21.766;2023-10-31T07:02:55;5.85;;;2.20;;
35225;SDS011;21813;49.686;21.766;2023-10-31T07:05:20;4.38;;;2.25;;
35225;SDS011;21813;49.686;21.766;2023-10-31T07:07:46;7.60;;;1.98;;
35225;SDS011;21813;49.686;21.766;2023-10-31T07:10:12;8.80;;;2.90;;
35225;SDS011;21813;49.686;21.766;2023-10-31T07:12:38;5.68;;;2.40;;
35225;SDS011;21813;49.686;21.766;2023-10-31T07:15:04;4.38;;;2.40;;
35225;SDS011;21813;49.686;21.766;2023-10-31T07:17:30;4.38;;;2.22;;
35225;SDS011;21813;49.686;21.766;2023-10-31T07:19:56;8.82;;;2.38;;
35225;SDS011;21813;49.686;21.766;2023-10-31T07:22:22;6.25;;;2.58;;
35225;SDS011;21813;49.686;21.766;2023-10-31T07:24:51;7.28;;;2.53;;
35225;SDS011;21813;49.686;21.766;2023-10-31T07:27:17;6.18;;;2.50;;
35225;SDS011;21813;49.686;21.766;2023-10-31T07:29:43;4.72;;;2.20;;
35225;SDS011;21813;49.686;21.766;2023-10-31T07:32:09;6.93;;;2.22;;
35225;SDS011;21813;49.686;21.766;2023-10-31T07:34:35;8.20;;;2.90;;
35225;SDS011;21813;49.686;21.766;2023-10-31T07:37:01;5.35;;;2.60;;
35225;SDS011;21813;49.686;21.766;2023-10-31T07:39:27;6.85;;;2.70;;
35225;SDS011;21813;49.686;21.766;2023-10-31T07:41:53;4.32;;;2.33;;
35225;SDS011;21813;49.686;21.766;2023-10-31T07:44:18;8.13;;;2.78;;
35225;SDS011;21813;49.686;21.766;2023-10-31T07:46:44;4.88;;;2.42;;
35225;SDS011;21813;49.686;21.766;2023-10-31T07:49:10;3.35;;;2.00;;
35225;SDS011;21813;49.686;21.766;2023-10-31T07:51:36;10.23;;;2.80;;
35225;SDS011;21813;49.686;21.766;2023-10-31T07:54:05;5.45;;;2.58;;
35225;SDS011;21813;49.686;21.766;2023-10-31T07:56:31;6.57;;;2.70;;
35225;SDS011;21813;49.686;21.766;2023-10-31T07:58:58;5.03;;;2.30;;
35225;SDS011;21813;49.686;21.766;2023-10-31T08:01:23;4.88;;;1.73;;
35225;SDS011;21813;49.686;21.766;2023-10-31T08:03:49;5.35;;;2.17;;
35225;SDS011;21813;49.686;21.766;2023-10-31T08:06:15;5.90;;;2.25;;
35225;SDS011;21813;49.686;21.766;2023-10-31T08:08:47;5.97;;;2.05;;
35225;SDS011;21813;49.686;21.766;2023-10-31T08:11:27;4.65;;;2.22;;
35225;SDS011;21813;49.686;21.766;2023-10-31T08:13:53;5.97;;;2.50;;
35225;SDS011;21813;49.686;21.766;2023-10-31T08:16:19;5.68;;;2.60;;
35225;SDS011;21813;49.686;21.766;2023-10-31T08:18:54;4.90;;;2.08;;
35225;SDS011;21813;49.686;21.766;2023-10-31T08:21:23;5.32;;;2.55;;
35225;SDS011;21813;49.686;21.766;2023-10-31T08:24:11;7.85;;;2.90;;
35225;SDS011;21813;49.686;21.766;2023-10-31T08:26:44;6.07;;;2.45;;
35225;SDS011;21813;49.686;21.766;2023-10-31T08:29:24;6.15;;;2.08;;
35225;SDS011;21813;49.686;21.766;2023-10-31T08:31:49;7.35;;;2.40;;
35225;SDS011;21813;49.686;21.766;2023-10-31T08:34:16;3.47;;;2.35;;
35225;SDS011;21813;49.686;21.766;2023-10-31T08:36:48;4.13;;;2.20;;
35225;SDS011;21813;49.686;21.766;2023-10-31T08:39:14;3.33;;;1.98;;
35225;SDS011;21813;49.686;21.766;2023-10-31T08:41:50;6.80;;;2.35;;
35225;SDS011;21813;49.686;21.766;2023-10-31T08:44:16;5.85;;;2.15;;
35225;SDS011;21813;49.686;21.766;2023-10-31T08:46:41;7.90;;;2.80;;
35225;SDS011;21813;49.686;21.766;2023-10-31T08:49:08;3.30;;;1.73;;
35225;SDS011;21813;49.686;21.766;2023-10-31T08:51:34;4.97;;;2.22;;
35225;SDS011;21813;49.686;21.766;2023-10-31T08:53:59;4.10;;;2.22;;
35225;SDS011;21813;49.686;21.766;2023-10-31T08:56:25;4.28;;;2.80;;
35225;SDS011;21813;49.686;21.766;2023-10-31T08:58:53;7.25;;;2.50;;
35225;SDS011;21813;49.686;21.766;2023-10-31T09:01:19;7.72;;;2.88;;
35225;SDS011;21813;49.686;21.766;2023-10-31T09:03:45;10.88;;;2.15;;
35225;SDS011;21813;49.686;21.766;2023-10-31T09:06:11;4.20;;;2.20;;
35225;SDS011;21813;49.686;21.766;2023-10-31T09:08:37;5.43;;;2.03;;
35225;SDS011;21813;49.686;21.766;2023-10-31T09:11:04;5.88;;;2.30;;
35225;SDS011;21813;49.686;21.766;2023-10-31T09:13:31;3.72;;;2.13;;
35225;SDS011;21813;49.686;21.766;2023-10-31T09:16:00;5.63;;;2.45;;
35225;SDS011;21813;49.686;21.766;2023-10-31T09:18:26;4.32;;;2.15;;
35225;SDS011;21813;49.686;21.766;2023-10-31T09:20:57;2.58;;;2.05;;
35225;SDS011;21813;49.686;21.766;2023-10-31T09:23:29;3.70;;;2.63;;
35225;SDS011;21813;49.686;21.766;2023-10-31T09:25:55;7.47;;;1.80;;
35225;SDS011;21813;49.686;21.766;2023-10-31T09:28:22;8.32;;;2.20;;
35225;SDS011;21813;49.686;21.766;2023-10-31T09:30:47;5.95;;;2.03;;
35225;SDS011;21813;49.686;21.766;2023-10-31T09:33:13;7.45;;;2.90;;
35225;SDS011;21813;49.686;21.766;2023-10-31T09:35:39;7.45;;;3.05;;
35225;SDS011;21813;49.686;21.766;2023-10-31T09:38:04;5.45;;;2.58;;
35225;SDS011;21813;49.686;21.766;2023-10-31T09:40:30;6.13;;;2.25;;
35225;SDS011;21813;49.686;21.766;2023-10-31T09:42:56;9.75;;;3.15;;
35225;SDS011;21813;49.686;21.766;2023-10-31T09:45:22;5.45;;;2.35;;
35225;SDS011;21813;49.686;21.766;2023-10-31T09:47:48;5.43;;;2.40;;
35225;SDS011;21813;49.686;21.766;2023-10-31T09:50:13;6.82;;;3.15;;
35225;SDS011;21813;49.686;21.766;2023-10-31T09:52:39;7.00;;;2.47;;
35225;SDS011;21813;49.686;21.766;2023-10-31T09:55:05;7.22;;;2.97;;
35225;SDS011;21813;49.686;21.766;2023-10-31T09:57:33;11.55;;;2.75;;
35225;SDS011;21813;49.686;21.766;2023-10-31T09:59:59;5.20;;;2.95;;
35225;SDS011;21813;49.686;21.766;2023-10-31T10:02:25;6.03;;;3.28;;
35225;SDS011;21813;49.686;21.766;2023-10-31T10:07:25;4.28;;;2.42;;
35225;SDS011;21813;49.686;21.766;2023-10-31T10:09:53;4.57;;;2.70;;
35225;SDS011;21813;49.686;21.766;2023-10-31T10:22:05;4.68;;;2.50;;
35225;SDS011;21813;49.686;21.766;2023-10-31T10:24:31;6.82;;;2.53;;
35225;SDS011;21813;49.686;21.766;2023-10-31T10:26:57;4.68;;;2.50;;
35225;SDS011;21813;49.686;21.766;2023-10-31T10:29:23;6.35;;;2.88;;
35225;SDS011;21813;49.686;21.766;2023-10-31T10:31:51;9.63;;;2.42;;
35225;SDS011;21813;49.686;21.766;2023-10-31T10:34:17;8.00;;;2.75;;
35225;SDS011;21813;49.686;21.766;2023-10-31T10:36:45;7.60;;;3.03;;
35225;SDS011;21813;49.686;21.766;2023-10-31T10:39:13;7.57;;;3.20;;
35225;SDS011;21813;49.686;21.766;2023-10-31T10:41:50;3.85;;;2.33;;
35225;SDS011;21813;49.686;21.766;2023-10-31T10:44:19;9.57;;;2.70;;
35225;SDS011;21813;49.686;21.766;2023-10-31T10:46:54;4.40;;;2.65;;
35225;SDS011;21813;49.686;21.766;2023-10-31T10:55:45;8.18;;;2.65;;
35225;SDS011;21813;49.686;21.766;2023-10-31T10:58:25;6.43;;;2.95;;
35225;SDS011;21813;49.686;21.766;2023-10-31T11:00:59;5.90;;;2.53;;
35225;SDS011;21813;49.686;21.766;2023-10-31T11:03:26;6.70;;;2.45;;
35225;SDS011;21813;49.686;21.766;2023-10-31T11:05:54;7.85;;;2.38;;
35225;SDS011;21813;49.686;21.766;2023-10-31T11:08:21;4.22;;;2.20;;
35225;SDS011;21813;49.686;21.766;2023-10-31T11:10:50;6.30;;;2.70;;
35225;SDS011;21813;49.686;21.766;2023-10-31T11:13:16;8.13;;;3.13;;
35225;SDS011;21813;49.686;21.766;2023-10-31T11:15:42;6.95;;;2.25;;
35225;SDS011;21813;49.686;21.766;2023-10-31T11:18:09;5.15;;;1.95;;
35225;SDS011;21813;49.686;21.766;2023-10-31T11:20:36;4.78;;;1.98;;
35225;SDS011;21813;49.686;21.766;2023-10-31T11:23:02;5.40;;;2.33;;
35225;SDS011;21813;49.686;21.766;2023-10-31T11:25:32;5.13;;;2.40;;
35225;SDS011;21813;49.686;21.766;2023-10-31T11:28:14;7.68;;;2.65;;
35225;SDS011;21813;49.686;21.766;2023-10-31T11:30:42;9.40;;;2.70;;
35225;SDS011;21813;49.686;21.766;2023-10-31T11:33:15;8.70;;;2.80;;
35225;SDS011;21813;49.686;21.766;2023-10-31T11:35:44;8.40;;;3.05;;
35225;SDS011;21813;49.686;21.766;2023-10-31T11:38:14;4.95;;;2.15;;
35225;SDS011;21813;49.686;21.766;2023-10-31T11:43:15;4.88;;;2.30;;
35225;SDS011;21813;49.686;21.766;2023-10-31T11:45:41;7.57;;;2.47;;
35225;SDS011;21813;49.686;21.766;2023-10-31T11:51:14;8.38;;;2.20;;
35225;SDS011;21813;49.686;21.766;2023-10-31T11:53:40;7.95;;;2.50;;
35225;SDS011;21813;49.686;21.766;2023-10-31T11:56:12;3.75;;;2.20;;
35225;SDS011;21813;49.686;21.766;2023-10-31T11:58:38;5.50;;;2.30;;
35225;SDS011;21813;49.686;21.766;2023-10-31T12:01:04;6.75;;;2.28;;
35225;SDS011;21813;49.686;21.766;2023-10-31T12:03:38;6.60;;;2.50;;
35225;SDS011;21813;49.686;21.766;2023-10-31T12:06:05;3.95;;;1.90;;
35225;SDS011;21813;49.686;21.766;2023-10-31T12:11:44;9.75;;;2.10;;
35225;SDS011;21813;49.686;21.766;2023-10-31T12:14:10;10.65;;;1.92;;
35225;SDS011;21813;49.686;21.766;2023-10-31T12:17:44;6.88;;;2.22;;
35225;SDS011;21813;49.686;21.766;2023-10-31T12:26:03;4.85;;;2.97;;
35225;SDS011;21813;49.686;21.766;2023-10-31T12:31:57;7.43;;;3.13;;
35225;SDS011;21813;49.686;21.766;2023-10-31T12:34:23;6.07;;;2.85;;
35225;SDS011;21813;49.686;21.766;2023-10-31T12:40:21;6.65;;;2.13;;
35225;SDS011;21813;49.686;21.766;2023-10-31T12:42:48;5.25;;;2.13;;
35225;SDS011;21813;49.686;21.766;2023-10-31T12:45:15;7.30;;;2.50;;
35225;SDS011;21813;49.686;21.766;2023-10-31T12:54:34;7.25;;;3.13;;
35225;SDS011;21813;49.686;21.766;2023-10-31T12:57:04;4.43;;;2.28;;
35225;SDS011;21813;49.686;21.766;2023-10-31T12:59:32;9.30;;;2.53;;
35225;SDS011;21813;49.686;21.766;2023-10-31T13:02:08;5.10;;;1.98;;
35225;SDS011;21813;49.686;21.766;2023-10-31T13:07:35;4.55;;;2.55;;
35225;SDS011;21813;49.686;21.766;2023-10-31T13:13:57;4.88;;;2.25;;
35225;SDS011;21813;49.686;21.766;2023-10-31T13:28:58;6.32;;;2.80;;
35225;SDS011;21813;49.686;21.766;2023-10-31T13:44:47;10.52;;;3.53;;
35225;SDS011;21813;49.686;21.766;2023-10-31T13:47:13;8.85;;;2.63;;
35225;SDS011;21813;49.686;21.766;2023-10-31T13:49:42;7.15;;;2.85;;
35225;SDS011;21813;49.686;21.766;2023-10-31T13:52:08;7.75;;;2.67;;
35225;SDS011;21813;49.686;21.766;2023-10-31T13:59:52;8.77;;;2.50;;
35225;SDS011;21813;49.686;21.766;2023-10-31T14:03:22;8.50;;;2.63;;
35225;SDS011;21813;49.686;21.766;2023-10-31T14:12:30;6.35;;;2.35;;
35225;SDS011;21813;49.686;21.766;2023-10-31T14:14:56;8.27;;;2.40;;
35225;SDS011;21813;49.686;21.766;2023-10-31T14:17:23;8.88;;;2.53;;
35225;SDS011;21813;49.686;21.766;2023-10-31T14:19:49;5.85;;;2.45;;
35225;SDS011;21813;49.686;21.766;2023-10-31T14:22:14;6.45;;;2.95;;
35225;SDS011;21813;49.686;21.766;2023-10-31T14:24:40;10.35;;;3.00;;
35225;SDS011;21813;49.686;21.766;2023-10-31T14:27:06;10.57;;;3.28;;
35225;SDS011;21813;49.686;21.766;2023-10-31T14:29:32;3.15;;;2.13;;
35225;SDS011;21813;49.686;21.766;2023-10-31T14:32:07;4.72;;;2.35;;
35225;SDS011;21813;49.686;21.766;2023-10-31T14:34:49;6.25;;;2.65;;
35225;SDS011;21813;49.686;21.766;2023-10-31T14:47:35;7.32;;;3.42;;
35225;SDS011;21813;49.686;21.766;2023-10-31T14:50:18;6.07;;;2.95;;
35225;SDS011;21813;49.686;21.766;2023-10-31T14:53:02;6.70;;;2.15;;
35225;SDS011;21813;49.686;21.766;2023-10-31T14:55:42;7.82;;;3.15;;
35225;SDS011;21813;49.686;21.766;2023-10-31T14:58:10;12.90;;;3.40;;
35225;SDS011;21813;49.686;21.766;2023-10-31T15:06:44;21.98;;;9.80;;
35225;SDS011;21813;49.686;21.766;2023-10-31T15:09:19;18.70;;;8.95;;
35225;SDS011;21813;49.686;21.766;2023-10-31T15:11:45;20.85;;;9.20;;
35225;SDS011;21813;49.686;21.766;2023-10-31T15:14:11;21.40;;;9.50;;
35225;SDS011;21813;49.686;21.766;2023-10-31T15:23:13;17.85;;;6.93;;
35225;SDS011;21813;49.686;21.766;2023-10-31T15:25:43;16.55;;;8.35;;
35225;SDS011;21813;49.686;21.766;2023-10-31T15:28:08;14.85;;;7.18;;
35225;SDS011;21813;49.686;21.766;2023-10-31T15:33:22;12.95;;;5.95;;
35225;SDS011;21813;49.686;21.766;2023-10-31T15:35:56;13.93;;;6.20;;
35225;SDS011;21813;49.686;21.766;2023-10-31T15:38:30;22.40;;;7.95;;
35225;SDS011;21813;49.686;21.766;2023-10-31T15:41:08;14.93;;;6.55;;
35225;SDS011;21813;49.686;21.766;2023-10-31T15:43:35;11.77;;;5.47;;
35225;SDS011;21813;49.686;21.766;2023-10-31T15:46:01;12.95;;;5.32;;
35225;SDS011;21813;49.686;21.766;2023-10-31T15:48:27;12.00;;;6.00;;
35225;SDS011;21813;49.686;21.766;2023-10-31T15:50:52;18.38;;;6.38;;
35225;SDS011;21813;49.686;21.766;2023-10-31T15:53:18;14.18;;;7.75;;
35225;SDS011;21813;49.686;21.766;2023-10-31T15:55:45;19.77;;;7.65;;
35225;SDS011;21813;49.686;21.766;2023-10-31T15:58:13;12.68;;;6.38;;
35225;SDS011;21813;49.686;21.766;2023-10-31T16:10:57;8.18;;;4.93;;
35225;SDS011;21813;49.686;21.766;2023-10-31T16:19:06;10.57;;;3.97;;
35225;SDS011;21813;49.686;21.766;2023-10-31T16:21:34;10.65;;;5.32;;
35225;SDS011;21813;49.686;21.766;2023-10-31T16:24:03;10.30;;;5.40;;
35225;SDS011;21813;49.686;21.766;2023-10-31T16:26:29;10.15;;;4.90;;
35225;SDS011;21813;49.686;21.766;2023-10-31T16:28:55;9.23;;;5.72;;
35225;SDS011;21813;49.686;21.766;2023-10-31T16:31:23;9.73;;;5.75;;
35225;SDS011;21813;49.686;21.766;2023-10-31T16:33:50;12.80;;;6.15;;
35225;SDS011;21813;49.686;21.766;2023-10-31T16:36:15;13.60;;;5.18;;
35225;SDS011;21813;49.686;21.766;2023-10-31T16:38:45;11.10;;;5.32;;
35225;SDS011;21813;49.686;21.766;2023-10-31T16:41:15;13.60;;;5.57;;
35225;SDS011;21813;49.686;21.766;2023-10-31T16:43:47;26.88;;;6.70;;
35225;SDS011;21813;49.686;21.766;2023-10-31T16:46:12;13.18;;;6.60;;
35225;SDS011;21813;49.686;21.766;2023-10-31T16:48:40;13.63;;;6.43;;
35225;SDS011;21813;49.686;21.766;2023-10-31T16:57:46;11.18;;;5.70;;
35225;SDS011;21813;49.686;21.766;2023-10-31T17:00:14;11.45;;;5.57;;
35225;SDS011;21813;49.686;21.766;2023-10-31T17:02:51;11.95;;;5.93;;
35225;SDS011;21813;49.686;21.766;2023-10-31T17:05:17;9.85;;;5.68;;
35225;SDS011;21813;49.686;21.766;2023-10-31T17:07:45;10.73;;;5.65;;
35225;SDS011;21813;49.686;21.766;2023-10-31T17:12:47;13.73;;;6.05;;
35225;SDS011;21813;49.686;21.766;2023-10-31T17:15:15;10.55;;;6.20;;
35225;SDS011;21813;49.686;21.766;2023-10-31T17:27:47;12.27;;;5.60;;
35225;SDS011;21813;49.686;21.766;2023-10-31T17:30:33;7.93;;;5.78;;
35225;SDS011;21813;49.686;21.766;2023-10-31T17:36:03;12.50;;;6.80;;
35225;SDS011;21813;49.686;21.766;2023-10-31T17:51:07;8.18;;;4.97;;
35225;SDS011;21813;49.686;21.766;2023-10-31T18:05:30;7.07;;;4.18;;
35225;SDS011;21813;49.686;21.766;2023-10-31T18:11:30;6.93;;;5.07;;
35225;SDS011;21813;49.686;21.766;2023-10-31T18:14:25;10.00;;;5.35;;
35225;SDS011;21813;49.686;21.766;2023-10-31T18:16:54;10.27;;;4.80;;
35225;SDS011;21813;49.686;21.766;2023-10-31T18:19:23;7.30;;;5.00;;
35225;SDS011;21813;49.686;21.766;2023-10-31T18:24:26;9.30;;;5.03;;
35225;SDS011;21813;49.686;21.766;2023-10-31T18:36:13;10.63;;;5.90;;
35225;SDS011;21813;49.686;21.766;2023-10-31T18:38:39;12.15;;;5.57;;
35225;SDS011;21813;49.686;21.766;2023-10-31T18:41:05;11.45;;;6.05;;
35225;SDS011;21813;49.686;21.766;2023-10-31T18:43:50;8.10;;;5.93;;
35225;SDS011;21813;49.686;21.766;2023-10-31T18:49:29;10.18;;;5.43;;
35225;SDS011;21813;49.686;21.766;2023-10-31T18:51:54;11.68;;;5.20;;
35225;SDS011;21813;49.686;21.766;2023-10-31T18:54:29;11.10;;;5.65;;
35225;SDS011;21813;49.686;21.766;2023-10-31T18:56:55;10.25;;;6.05;;
35225;SDS011;21813;49.686;21.766;2023-10-31T18:59:25;12.05;;;6.65;;
35225;SDS011;21813;49.686;21.766;2023-10-31T19:01:51;15.77;;;7.35;;
35225;SDS011;21813;49.686;21.766;2023-10-31T19:04:24;15.07;;;7.00;;
35225;SDS011;21813;49.686;21.766;2023-10-31T19:06:54;12.37;;;7.07;;
35225;SDS011;21813;49.686;21.766;2023-10-31T19:13:57;10.85;;;6.60;;
35225;SDS011;21813;49.686;21.766;2023-10-31T19:16:25;12.63;;;7.00;;
35225;SDS011;21813;49.686;21.766;2023-10-31T19:18:52;16.35;;;7.72;;
35225;SDS011;21813;49.686;21.766;2023-10-31T19:21:18;11.35;;;7.38;;
35225;SDS011;21813;49.686;21.766;2023-10-31T19:23:43;13.73;;;7.20;;
35225;SDS011;21813;49.686;21.766;2023-10-31T19:26:12;13.18;;;7.20;;
35225;SDS011;21813;49.686;21.766;2023-10-31T19:28:37;10.57;;;7.75;;
35225;SDS011;21813;49.686;21.766;2023-10-31T19:31:04;9.52;;;7.10;;
35225;SDS011;21813;49.686;21.766;2023-10-31T19:33:30;9.85;;;6.80;;
35225;SDS011;21813;49.686;21.766;2023-10-31T19:35:56;12.57;;;7.40;;
35225;SDS011;21813;49.686;21.766;2023-10-31T19:38:22;11.85;;;7.40;;
35225;SDS011;21813;49.686;21.766;2023-10-31T19:40:47;11.65;;;8.10;;
35225;SDS011;21813;49.686;21.766;2023-10-31T19:43:14;13.70;;;8.32;;
35225;SDS011;21813;49.686;21.766;2023-10-31T19:45:40;13.85;;;7.78;;
35225;SDS011;21813;49.686;21.766;2023-10-31T19:48:08;16.98;;;7.72;;
35225;SDS011;21813;49.686;21.766;2023-10-31T19:50:39;13.18;;;8.40;;
35225;SDS011;21813;49.686;21.766;2023-10-31T19:53:05;15.20;;;9.18;;
35225;SDS011;21813;49.686;21.766;2023-10-31T19:55:31;11.27;;;8.32;;
35225;SDS011;21813;49.686;21.766;2023-10-31T19:57:56;13.27;;;9.27;;
35225;SDS011;21813;49.686;21.766;2023-10-31T20:00:22;15.80;;;10.95;;
35225;SDS011;21813;49.686;21.766;2023-10-31T20:02:50;17.60;;;9.88;;
35225;SDS011;21813;49.686;21.766;2023-10-31T20:05:16;17.15;;;10.20;;
35225;SDS011;21813;49.686;21.766;2023-10-31T20:07:42;20.15;;;10.95;;
35225;SDS011;21813;49.686;21.766;2023-10-31T20:10:08;19.35;;;10.30;;
35225;SDS011;21813;49.686;21.766;2023-10-31T20:12:37;17.30;;;10.95;;
35225;SDS011;21813;49.686;21.766;2023-10-31T20:15:05;13.48;;;10.52;;
35225;SDS011;21813;49.686;21.766;2023-10-31T20:17:37;14.65;;;10.25;;
35225;SDS011;21813;49.686;21.766;2023-10-31T20:20:03;17.38;;;10.13;;
35225;SDS011;21813;49.686;21.766;2023-10-31T20:22:33;9.88;;;7.68;;
35225;SDS011;21813;49.686;21.766;2023-10-31T20:24:59;10.55;;;6.57;;
35225;SDS011;21813;49.686;21.766;2023-10-31T20:27:24;8.43;;;5.47;;
35225;SDS011;21813;49.686;21.766;2023-10-31T20:29:55;6.57;;;2.97;;
35225;SDS011;21813;49.686;21.766;2023-10-31T20:32:21;4.60;;;4.15;;
35225;SDS011;21813;49.686;21.766;2023-10-31T20:35:30;5.07;;;3.83;;
35225;SDS011;21813;49.686;21.766;2023-10-31T20:57:42;4.50;;;3.30;;
35225;SDS011;21813;49.686;21.766;2023-10-31T21:00:08;3.13;;;2.83;;
35225;SDS011;21813;49.686;21.766;2023-10-31T21:02:34;3.78;;;3.08;;
35225;SDS011;21813;49.686;21.766;2023-10-31T21:04:59;4.07;;;3.55;;
35225;SDS011;21813;49.686;21.766;2023-10-31T21:07:25;5.00;;;3.53;;
35225;SDS011;21813;49.686;21.766;2023-10-31T21:09:51;4.95;;;4.10;;
35225;SDS011;21813;49.686;21.766;2023-10-31T21:12:17;5.40;;;4.60;;
35225;SDS011;21813;49.686;21.766;2023-10-31T21:14:43;7.68;;;4.95;;
35225;SDS011;21813;49.686;21.766;2023-10-31T21:17:26;5.10;;;4.38;;
35225;SDS011;21813;49.686;21.766;2023-10-31T21:33:01;7.40;;;5.47;;
35225;SDS011;21813;49.686;21.766;2023-10-31T21:35:47;5.72;;;5.05;;
35225;SDS011;21813;49.686;21.766;2023-10-31T21:38:21;4.85;;;4.35;;
35225;SDS011;21813;49.686;21.766;2023-10-31T21:43:43;5.78;;;5.07;;
35225;SDS011;21813;49.686;21.766;2023-10-31T21:46:09;4.43;;;2.92;;
35225;SDS011;21813;49.686;21.766;2023-10-31T21:48:40;3.30;;;2.90;;
35225;SDS011;21813;49.686;21.766;2023-10-31T21:51:05;2.53;;;2.30;;
35225;SDS011;21813;49.686;21.766;2023-10-31T21:53:32;4.60;;;2.38;;
35225;SDS011;21813;49.686;21.766;2023-10-31T21:56:00;3.70;;;2.22;;
35225;SDS011;21813;49.686;21.766;2023-10-31T21:58:26;2.95;;;2.75;;
35225;SDS011;21813;49.686;21.766;2023-10-31T22:00:52;3.47;;;2.47;;
35225;SDS011;21813;49.686;21.766;2023-10-31T22:03:17;3.50;;;2.40;;
35225;SDS011;21813;49.686;21.766;2023-10-31T22:05:46;4.85;;;3.78;;
35225;SDS011;21813;49.686;21.766;2023-10-31T22:08:12;4.05;;;3.65;;
35225;SDS011;21813;49.686;21.766;2023-10-31T22:10:38;4.20;;;3.53;;
35225;SDS011;21813;49.686;21.766;2023-10-31T22:13:04;5.13;;;3.80;;
35225;SDS011;21813;49.686;21.766;2023-10-31T22:15:30;6.13;;;4.90;;
35225;SDS011;21813;49.686;21.766;2023-10-31T22:17:56;7.47;;;5.50;;
35225;SDS011;21813;49.686;21.766;2023-10-31T22:20:24;9.48;;;6.55;;
35225;SDS011;21813;49.686;21.766;2023-10-31T22:22:50;8.27;;;7.32;;
35225;SDS011;21813;49.686;21.766;2023-10-31T22:25:16;11.38;;;7.50;;
35225;SDS011;21813;49.686;21.766;2023-10-31T22:27:42;8.57;;;6.55;;
35225;SDS011;21813;49.686;21.766;2023-10-31T22:30:08;7.90;;;6.38;;
35225;SDS011;21813;49.686;21.766;2023-10-31T22:32:35;9.18;;;7.10;;
35225;SDS011;21813;49.686;21.766;2023-10-31T22:35:01;13.73;;;7.63;;
35225;SDS011;21813;49.686;21.766;2023-10-31T22:37:28;8.13;;;6.65;;
35225;SDS011;21813;49.686;21.766;2023-10-31T22:39:53;9.13;;;8.07;;
35225;SDS011;21813;49.686;21.766;2023-10-31T22:42:19;12.38;;;8.38;;
35225;SDS011;21813;49.686;21.766;2023-10-31T22:44:45;10.63;;;8.07;;
35225;SDS011;21813;49.686;21.766;2023-10-31T22:47:14;6.85;;;6.13;;
35225;SDS011;21813;49.686;21.766;2023-10-31T22:49:39;6.20;;;5.53;;
35225;SDS011;21813;49.686;21.766;2023-10-31T22:52:05;5.05;;;4.55;;
35225;SDS011;21813;49.686;21.766;2023-10-31T22:54:34;5.05;;;4.22;;
35225;SDS011;21813;49.686;21.766;2023-10-31T22:57:00;5.30;;;3.78;;
35225;SDS011;21813;49.686;21.766;2023-10-31T22:59:25;7.53;;;4.00;;
35225;SDS011;21813;49.686;21.766;2023-10-31T23:01:51;4.88;;;4.10;;
35225;SDS011;21813;49.686;21.766;2023-10-31T23:04:21;3.80;;;3.40;;
35225;SDS011;21813;49.686;21.766;2023-10-31T23:06:48;4.35;;;3.47;;
35225;SDS011;21813;49.686;21.766;2023-10-31T23:09:13;4.50;;;4.10;;
35225;SDS011;21813;49.686;21.766;2023-10-31T23:11:40;5.13;;;4.63;;
35225;SDS011;21813;49.686;21.766;2023-10-31T23:14:06;6.95;;;5.60;;
35225;SDS011;21813;49.686;21.766;2023-10-31T23:16:32;6.25;;;4.97;;
35225;SDS011;21813;49.686;21.766;2023-10-31T23:18:57;6.50;;;5.60;;
35225;SDS011;21813;49.686;21.766;2023-10-31T23:21:23;7.88;;;6.47;;
35225;SDS011;21813;49.686;21.766;2023-10-31T23:23:58;6.63;;;5.93;;
35225;SDS011;21813;49.686;21.766;2023-10-31T23:26:24;8.23;;;6.40;;
35225;SDS011;21813;49.686;21.766;2023-10-31T23:28:49;7.22;;;6.35;;
35225;SDS011;21813;49.686;21.766;2023-10-31T23:55:46;5.35;;;3.75;;
35225;SDS011;21813;49.686;21.766;2023-10-31T23:58:19;4.95;;;3.90;;
